Terminal Aerodrome Forecast
Issued by NWS

Home | Current Version | Previous Version | Text Only | Print | Product List | Glossary On
Versions: 1 2 3 4 5 6 7 8 9 10 11 12 13 14 15 16
000
FTUS43 KMQT 221127
TAFCMX
TAF
KCMX 221127Z 2212/2312 30011KT P6SM BKN008
      TEMPO 2212/2214 SCT008 BKN020
     FM221400 30013G22KT P6SM BKN015
     FM221600 30014G23KT P6SM SCT025
     FM230100 30013G20KT P6SM BKN080
     FM230500 33011KT P6SM BKN060=

USA.gov is the U.S. government's official web portal to all federal, state and local government web resources and services.